createdAt,value
2022-10-21T00:00:30.835Z,15.10
2022-10-21T00:05:32.536Z,14.70
2022-10-21T00:10:34.369Z,14.90
2022-10-21T00:20:41.234Z,16.80
2022-10-21T00:25:42.920Z,14.50
2022-10-21T00:30:45.899Z,15.50
2022-10-21T00:35:55.316Z,14.70
2022-10-21T00:40:57.041Z,14.30
2022-10-21T00:46:05.103Z,14.30
2022-10-21T00:51:12.724Z,14.90
2022-10-21T00:56:24.337Z,14.20
2022-10-21T01:01:26.188Z,14.50
2022-10-21T01:06:28.801Z,14.10
2022-10-21T01:11:33.144Z,14.10
2022-10-21T01:17:01.612Z,14.80
2022-10-21T01:22:40.889Z,14.10
2022-10-21T01:28:07.079Z,14.10
2022-10-21T01:33:38.736Z,14.10
2022-10-21T01:39:02.102Z,14.00
2022-10-21T01:44:16.121Z,14.10
2022-10-21T01:49:30.091Z,14.10
2022-10-21T01:54:42.717Z,14.10
2022-10-21T01:59:45.573Z,14.10
2022-10-21T02:04:50.676Z,14.20
2022-10-21T02:09:52.345Z,14.80
2022-10-21T02:14:55.376Z,14.10
2022-10-21T02:20:00.888Z,12.80
2022-10-21T02:25:10.148Z,16.40
2022-10-21T02:30:12.479Z,14.10
2022-10-21T02:35:22.973Z,14.10
2022-10-21T02:40:35.520Z,14.20
2022-10-21T02:45:38.640Z,14.20
2022-10-21T02:50:40.395Z,14.50
2022-10-21T02:55:42.153Z,14.30
2022-10-21T03:00:43.870Z,14.30
2022-10-21T03:10:53.530Z,14.10
2022-10-21T03:15:55.690Z,14.20
2022-10-21T03:20:57.372Z,14.00
2022-10-21T03:25:59.011Z,14.10
2022-10-21T03:31:00.731Z,16.00
2022-10-21T03:36:02.476Z,13.80
2022-10-21T03:41:04.209Z,14.10
2022-10-21T03:51:08.065Z,13.80
2022-10-21T03:56:09.746Z,13.70
2022-10-21T04:01:13.313Z,14.30
2022-10-21T04:06:14.995Z,13.70
2022-10-21T04:11:16.717Z,13.70
2022-10-21T04:16:20.584Z,13.80
2022-10-21T04:26:25.002Z,13.90
2022-10-21T04:31:31.273Z,14.70
2022-10-21T04:36:33.830Z,14.10
2022-10-21T04:41:35.983Z,15.50
2022-10-21T04:51:39.798Z,13.80
2022-10-21T04:56:41.975Z,13.90
2022-10-21T05:06:45.687Z,14.20
2022-10-21T05:11:47.371Z,13.90
2022-10-21T05:21:51.157Z,13.90
2022-10-21T05:26:52.905Z,13.90
2022-10-21T05:36:56.647Z,14.00
2022-10-21T05:41:58.323Z,14.30
2022-10-21T05:46:59.994Z,14.10
2022-10-21T05:52:02.432Z,15.10
2022-10-21T05:57:04.150Z,14.00
2022-10-21T06:02:06.102Z,14.10
2022-10-21T06:12:10.341Z,14.00
2022-10-21T06:17:12.845Z,14.10
2022-10-21T06:22:15.212Z,14.20
2022-10-21T06:42:29.605Z,14.20
2022-10-21T06:47:31.301Z,14.30
2022-10-21T06:52:33.664Z,14.30
2022-10-21T06:57:35.827Z,14.30
2022-10-21T07:02:38.061Z,14.30
2022-10-21T07:07:40.303Z,14.40
2022-10-21T07:17:44.323Z,14.40
2022-10-21T07:22:46.022Z,14.50
2022-10-21T07:27:49.066Z,14.60
2022-10-21T07:32:51.165Z,14.60
2022-10-21T07:42:56.582Z,14.60
2022-10-21T07:47:58.356Z,15.90
2022-10-21T07:58:14.323Z,14.60
2022-10-21T08:03:15.995Z,14.90
2022-10-21T08:08:17.783Z,14.90
2022-10-21T08:13:20.647Z,14.90
2022-10-21T08:23:26.422Z,15.10
2022-10-21T08:28:29.812Z,15.10
2022-10-21T08:33:32.164Z,15.20
2022-10-21T08:38:34.448Z,15.30
2022-10-21T08:43:38.920Z,15.50
2022-10-21T08:48:47.646Z,15.60
2022-10-21T08:53:53.547Z,15.70
2022-10-21T08:58:55.306Z,15.70
2022-10-21T09:04:00.086Z,15.90
2022-10-21T09:09:11.317Z,16.50
2022-10-21T09:14:15.925Z,16.00
2022-10-21T09:19:42.597Z,16.10
2022-10-21T09:24:52.538Z,15.90
2022-10-21T09:30:00.711Z,15.90
2022-10-21T09:35:24.103Z,16.10
2022-10-21T09:40:28.946Z,16.20
2022-10-21T09:45:40.731Z,16.10
2022-10-21T09:50:43.036Z,14.10
2022-10-21T09:55:47.619Z,15.80
2022-10-21T10:00:50.418Z,15.90
2022-10-21T10:05:52.163Z,16.10
2022-10-21T10:11:10.955Z,16.40
2022-10-21T10:16:28.146Z,16.40
2022-10-21T10:21:29.779Z,16.40
2022-10-21T10:26:42.633Z,16.50
2022-10-21T10:31:50.997Z,16.50
2022-10-21T10:37:05.795Z,16.30
2022-10-21T10:42:08.115Z,16.30
2022-10-21T10:47:20.981Z,16.20
2022-10-21T10:52:24.439Z,16.40
2022-10-21T10:57:39.037Z,16.50
2022-10-21T11:03:04.432Z,16.60
2022-10-21T11:08:17.517Z,16.80
2022-10-21T11:13:24.081Z,16.80
2022-10-21T11:19:10.746Z,16.80
2022-10-21T11:24:42.793Z,17.00
2022-10-21T11:29:47.545Z,17.20
2022-10-21T11:34:58.400Z,17.30
2022-10-21T11:40:31.204Z,17.50
2022-10-21T11:45:42.053Z,17.60
2022-10-21T11:51:06.057Z,18.70
2022-10-21T11:56:19.384Z,18.70
2022-10-21T12:01:46.749Z,18.70
2022-10-21T12:07:00.649Z,19.40
2022-10-21T12:12:22.814Z,19.90
2022-10-21T12:17:25.393Z,19.90
2022-10-21T12:22:29.899Z,19.50
2022-10-21T12:28:06.590Z,19.00
2022-10-21T12:33:39.002Z,18.60
2022-10-21T12:38:54.926Z,18.40
2022-10-21T12:44:03.008Z,18.10
2022-10-21T12:49:30.594Z,18.20
2022-10-21T12:54:39.699Z,18.20
2022-10-21T12:59:43.202Z,18.00
2022-10-21T13:04:47.670Z,18.20
2022-10-21T13:09:52.402Z,18.20
2022-10-21T13:14:57.196Z,18.20
2022-10-21T13:20:17.953Z,17.90
2022-10-21T13:25:24.238Z,17.90
2022-10-21T13:30:29.430Z,17.90
2022-10-21T13:35:43.607Z,17.80
2022-10-21T13:41:10.409Z,17.70
2022-10-21T13:46:27.159Z,17.90
2022-10-21T13:51:31.645Z,18.40
2022-10-21T13:56:36.031Z,18.40
2022-10-21T14:01:46.510Z,18.10
2022-10-21T14:06:58.222Z,18.10
2022-10-21T14:12:06.412Z,17.90
2022-10-21T14:17:19.542Z,17.60
2022-10-21T14:22:25.445Z,17.50
2022-10-21T14:27:29.963Z,17.40
2022-10-21T14:32:32.231Z,18.10
2022-10-21T14:37:44.221Z,17.50
2022-10-21T14:42:49.760Z,17.30
2022-10-21T14:48:10.333Z,17.20
2022-10-21T14:53:23.568Z,17.30
2022-10-21T14:58:32.329Z,17.20
2022-10-21T15:03:42.957Z,17.10
2022-10-21T15:09:01.214Z,17.10
2022-10-21T15:14:26.157Z,17.00
2022-10-21T15:19:43.933Z,17.00
2022-10-21T15:29:48.814Z,16.80
2022-10-21T15:34:52.060Z,16.90
2022-10-21T15:39:53.714Z,16.70
2022-10-21T15:44:55.406Z,17.00
2022-10-21T15:54:59.390Z,16.70
2022-10-21T16:00:01.316Z,16.60
2022-10-21T16:10:21.005Z,16.40
2022-10-21T16:15:24.010Z,16.30
2022-10-21T16:20:27.122Z,16.30
2022-10-21T16:25:28.819Z,16.20
2022-10-21T16:30:36.363Z,16.20
2022-10-21T16:40:40.133Z,16.00
2022-10-21T16:45:43.401Z,15.80
2022-10-21T16:50:46.405Z,15.80
2022-10-21T16:55:48.438Z,15.70
2022-10-21T17:00:50.427Z,15.70
2022-10-21T17:05:52.524Z,15.70
2022-10-21T17:10:54.212Z,16.60
2022-10-21T17:15:55.882Z,17.10
2022-10-21T17:20:57.602Z,15.50
2022-10-21T17:25:59.385Z,16.50
2022-10-21T17:31:01.051Z,15.40
2022-10-21T17:36:02.749Z,15.40
2022-10-21T17:41:04.523Z,15.30
2022-10-21T17:46:06.600Z,15.40
2022-10-21T17:51:09.663Z,17.00
2022-10-21T17:56:12.002Z,15.20
2022-10-21T18:01:13.993Z,15.30
2022-10-21T18:06:16.180Z,15.50
2022-10-21T18:11:20.263Z,15.10
2022-10-21T18:16:22.752Z,15.20
2022-10-21T18:21:24.922Z,16.50
2022-10-21T18:26:29.031Z,15.00
2022-10-21T18:31:33.757Z,15.10
2022-10-21T18:36:35.465Z,15.10
2022-10-21T18:41:38.544Z,15.00
2022-10-21T18:46:42.064Z,14.90
2022-10-21T18:51:43.887Z,14.90
2022-10-21T18:56:45.686Z,15.20
2022-10-21T19:01:47.465Z,15.30
2022-10-21T19:06:49.165Z,14.80
2022-10-21T19:11:50.886Z,14.80
2022-10-21T19:21:54.810Z,14.70
2022-10-21T19:26:58.598Z,14.70
2022-10-21T19:32:00.280Z,14.60
2022-10-21T19:37:01.993Z,14.60
2022-10-21T19:42:03.899Z,16.70
2022-10-21T19:47:05.641Z,15.30
2022-10-21T19:52:07.347Z,15.10
2022-10-21T20:02:11.636Z,14.50
2022-10-21T20:07:13.327Z,14.70
2022-10-21T20:17:18.422Z,14.60
2022-10-21T20:22:20.245Z,14.60
2022-10-21T20:27:21.936Z,14.50
2022-10-21T20:32:24.384Z,14.50
2022-10-21T20:37:26.085Z,14.50
2022-10-21T20:42:27.703Z,15.40
2022-10-21T20:47:30.936Z,14.60
2022-10-21T20:52:32.694Z,14.60
2022-10-21T20:57:36.978Z,14.60
2022-10-21T21:07:41.476Z,14.60
2022-10-21T21:12:43.435Z,14.60
2022-10-21T21:17:48.466Z,14.50
2022-10-21T21:22:50.343Z,15.30
2022-10-21T21:27:52.010Z,14.60
2022-10-21T21:32:53.695Z,16.90
2022-10-21T21:37:55.366Z,14.60
2022-10-21T21:42:57.032Z,14.70
2022-10-21T21:47:58.791Z,14.70
2022-10-21T21:58:03.051Z,14.60
2022-10-21T22:03:05.575Z,14.70
2022-10-21T22:13:09.491Z,14.70
2022-10-21T22:18:11.131Z,14.60
2022-10-21T22:33:17.076Z,14.70
2022-10-21T22:43:21.623Z,14.50
2022-10-21T22:48:23.462Z,14.50
2022-10-21T22:53:25.154Z,14.50
2022-10-21T22:58:26.808Z,14.60
2022-10-21T23:03:28.488Z,16.10
2022-10-21T23:08:30.198Z,14.80
2022-10-21T23:13:31.895Z,16.40
2022-10-21T23:18:33.776Z,14.70
2022-10-21T23:23:36.010Z,14.70
2022-10-21T23:28:37.820Z,16.40
2022-10-21T23:33:39.530Z,15.20
2022-10-21T23:38:41.291Z,14.90
2022-10-21T23:53:47.299Z,14.60
2022-10-21T23:58:48.978Z,14.60
